Signet Reliance — WDF8126 — position and weather

sailwx.info

Track history (hours):
 
Tides and Currents Weather Stations Pressure Air Temp Water Temp Dewpoint Dewpoint Depression Visibility Wind Speed Wind Dir Waves Ship Positions

Signet Reliance

Owner: Signet Maritime Corporation, Pascagoula, MS. More information available from US FCC via Universal Licensing System and Coast Guard Vessel Documentation Center.

Last reported at 2018-Jan-31 09:02 UTC. Time now 2018-May-24 08:13 UTC.
Position N 27°11' W 096°56'.
Warning: this ship's position is months out of date.

Length 30 m; draft 5.5 m.

Type: . MMSI: 367491660.

Date/timePositionNaut miles runAvg speedWind from/ knotsBaromVisibWave heightAir tempDewpointWater temp
2018-Jan-31 09:02N 27°11' W 096°56'010.6
2018-Jan-31 08:59N 27°12' W 096°56'510.6
2018-Jan-31 08:28N 27°17' W 096°56'510.5
2018-Jan-31 07:58N 27°22' W 096°55'510.5
2018-Jan-31 07:29N 27°27' W 096°54'510.5
2018-Jan-31 06:59N 27°33' W 096°53'510.6
2018-Jan-31 06:30N 27°38' W 096°53'5 9.7
2018-Jan-31 06:00N 27°43' W 096°52'0 0.8
2018-Jan-31 05:27N 27°43' W 096°53'1 1.4
2018-Jan-31 05:00N 27°43' W 096°53'1 1.3
2018-Jan-31 04:29N 27°43' W 096°54'0 0.7
2018-Jan-31 04:00N 27°43' W 096°54'0 0.6
2018-Jan-31 03:29N 27°43' W 096°55'0 1.0
2018-Jan-31 03:00N 27°44' W 096°55'0 0.3
2018-Jan-31 02:29N 27°44' W 096°55'1 1.7
2018-Jan-31 02:00N 27°44' W 096°56'1 1.3
2018-Jan-31 01:30N 27°44' W 096°57'1 1.8
2018-Jan-31 00:58N 27°44' W 096°58'2 1.7
2018-Jan-30 23:58N 27°46' W 096°58'1 1.3
2018-Jan-30 23:29N 27°46' W 096°59'1 1.5
2018-Jan-30 23:00N 27°46' W 096°60'1 1.2
2018-Jan-30 22:29N 27°47' W 097°00'1 0.9
2018-Jan-30 21:30N 27°48' W 096°60'0 0.5
2018-Jan-30 21:00N 27°48' W 096°60'0 0.6
2018-Jan-30 20:29N 27°48' W 096°59'0 0.4
2018-Jan-30 20:00N 27°48' W 096°59'1 1.4
2018-Jan-30 19:29N 27°49' W 096°60'1 1.7
2018-Jan-30 18:59N 27°49' W 097°01'1 1.8
2018-Jan-30 18:30N 27°49' W 097°01'1 1.8
2018-Jan-30 18:00N 27°50' W 097°02'1 1.1
2018-Jan-30 17:29N 27°50' W 097°03'1 1.4
2018-Jan-30 17:00N 27°51' W 097°04'1 2.1
2018-Jan-30 16:27N 27°50' W 097°05'1 2.5
2018-Jan-30 15:59N 27°50' W 097°06'1 2.4
2018-Jan-30 15:29N 27°50' W 097°07'1 2.6
2018-Jan-30 15:00N 27°50' W 097°09'1 2.2
2018-Jan-30 14:28N 27°49' W 097°10'2 2.1
2018-Jan-30 13:29N 27°49' W 097°12'1 1.8
2018-Jan-30 13:00N 27°49' W 097°13'1 1.1
2018-Jan-30 12:29N 27°50' W 097°14'0 1.0
2018-Jan-30 11:59N 27°50' W 097°14'0 0.9
2018-Jan-30 11:30N 27°50' W 097°14'1 0.9
2018-Jan-30 10:30N 27°51' W 097°14'0 0.1
2018-Jan-30 09:29N 27°51' W 097°14'0 0.0
2018-Jan-30 09:00N 27°51' W 097°14'0 0.1
2018-Jan-30 08:29N 27°51' W 097°14'0 0.1
2018-Jan-30 07:58N 27°51' W 097°14'0 0.0
2018-Jan-30 07:27N 27°51' W 097°14'0 0.0
2018-Jan-30 06:59N 27°51' W 097°14'0 0.1
2018-Jan-30 06:30N 27°51' W 097°14'0 0.0
2018-Jan-30 06:00N 27°51' W 097°14'0 0.1
2018-Jan-30 05:27N 27°51' W 097°14'0 0.1
2018-Jan-30 05:00N 27°51' W 097°14'0 0.1
2018-Jan-30 04:29N 27°51' W 097°14'0 0.0
2018-Jan-30 04:00N 27°51' W 097°14'0 0.0
2018-Jan-30 03:30N 27°51' W 097°14'0 0.0
2018-Jan-30 02:58N 27°51' W 097°14'0 0.0
2018-Jan-30 02:30N 27°51' W 097°14'0 0.1
2018-Jan-30 01:57N 27°51' W 097°14'0 0.1
2018-Jan-30 01:30N 27°51' W 097°14'0 0.0
2018-Jan-30 00:58N 27°51' W 097°14'0 0.2
2018-Jan-30 00:30N 27°51' W 097°14'0 0.1
2018-Jan-29 23:57N 27°51' W 097°14'0 0.0
2018-Jan-29 23:30N 27°51' W 097°14'0 0.0
2018-Jan-29 23:00N 27°51' W 097°14'0 0.0
2018-Jan-29 22:29N 27°51' W 097°14'0 0.1
2018-Jan-29 21:58N 27°51' W 097°14'0 0.0
2018-Jan-29 21:29N 27°51' W 097°14'0 0.1
2018-Jan-29 21:00N 27°51' W 097°14'0 0.0
2018-Jan-29 20:29N 27°51' W 097°14'0 0.0
2018-Jan-29 20:00N 27°51' W 097°14'0 0.1
2018-Jan-29 19:30N 27°51' W 097°14'0 0.0
2018-Jan-29 18:59N 27°51' W 097°14'0 0.0
2018-Jan-29 18:30N 27°51' W 097°14'0 0.1
2018-Jan-29 17:59N 27°51' W 097°14'1 1.8
2018-Jan-29 17:30N 27°51' W 097°14'0 0.0
2018-Jan-29 17:00N 27°51' W 097°14'0 0.0
2018-Jan-29 16:29N 27°51' W 097°14'0 0.0
2018-Jan-29 16:00N 27°51' W 097°14'0 0.0
2018-Jan-29 15:27N 27°51' W 097°14'0 0.0
2018-Jan-29 14:57N 27°51' W 097°14'0 0.0
2018-Jan-29 14:29N 27°51' W 097°14'0 0.0
2018-Jan-29 14:00N 27°51' W 097°14'0 0.0
2018-Jan-29 13:29N 27°51' W 097°14'0 0.0
2018-Jan-29 12:59N 27°51' W 097°14'0 0.0
2018-Jan-29 12:29N 27°51' W 097°14'0 0.0
2018-Jan-29 12:00N 27°51' W 097°14'0 0.0
2018-Jan-29 11:25N 27°51' W 097°14'0 0.0
2018-Jan-29 10:59N 27°51' W 097°14'0 0.0
2018-Jan-29 10:30N 27°51' W 097°14'0 0.0
2018-Jan-29 09:59N 27°51' W 097°14'0 0.0
2018-Jan-29 09:29N 27°51' W 097°14'0 0.0
2018-Jan-29 09:00N 27°51' W 097°14'0 0.0
2018-Jan-29 08:30N 27°51' W 097°14'0 0.0
2018-Jan-29 08:00N 27°51' W 097°14'0 0.0
2018-Jan-29 07:30N 27°51' W 097°14'0 0.0
2018-Jan-29 06:59N 27°51' W 097°14'0 0.0
2018-Jan-29 06:29N 27°51' W 097°14'0 0.0
2018-Jan-29 06:00N 27°51' W 097°14'0 0.0
2018-Jan-29 05:29N 27°51' W 097°14'0 0.0
2018-Jan-29 04:58N 27°51' W 097°14'0 0.0
2018-Jan-29 04:30N 27°51' W 097°14'0 0.0
2018-Jan-29 03:58N 27°51' W 097°14'0 0.0
2018-Jan-29 03:27N 27°51' W 097°14'0 0.0
2018-Jan-29 02:58N 27°51' W 097°14'0 0.0
2018-Jan-29 02:29N 27°51' W 097°14'0 0.0
2018-Jan-29 02:00N 27°51' W 097°14'0 0.0
2018-Jan-29 01:28N 27°51' W 097°14'0 0.0
2018-Jan-29 00:59N 27°51' W 097°14'0 0.0
2018-Jan-29 00:29N 27°51' W 097°14'0 0.0
2018-Jan-28 23:46N 27°51' W 097°14'0 0.0
2018-Jan-28 23:30N 27°51' W 097°14'0 0.0
2018-Jan-28 23:00N 27°51' W 097°14'0 0.0
2018-Jan-28 22:30N 27°51' W 097°14'0 0.0
2018-Jan-28 22:00N 27°51' W 097°14'0 0.0
2018-Jan-28 21:29N 27°51' W 097°14'0 0.0
2018-Jan-28 21:00N 27°51' W 097°14'0 0.0
2018-Jan-28 20:29N 27°51' W 097°14'0 0.0
2018-Jan-28 19:57N 27°51' W 097°14'0 0.0
2018-Jan-28 19:30N 27°51' W 097°14'0 0.0
2018-Jan-28 19:00N 27°51' W 097°14'0 0.0
2018-Jan-28 18:30N 27°51' W 097°14'0 0.0
2018-Jan-28 17:59N 27°51' W 097°14'0 0.0
2018-Jan-28 17:30N 27°51' W 097°14'0 0.0
2018-Jan-28 16:59N 27°51' W 097°14'0 0.0
2018-Jan-28 16:29N 27°51' W 097°14'0 0.0
2018-Jan-28 15:58N 27°51' W 097°14'0 0.0
2018-Jan-28 15:30N 27°51' W 097°14'0 0.0
2018-Jan-28 14:52N 27°51' W 097°14'0 0.0
2018-Jan-28 14:29N 27°51' W 097°14'0 0.0
2018-Jan-28 13:59N 27°51' W 097°14'0 0.0
2018-Jan-28 13:20N 27°51' W 097°14'0 0.0
2018-Jan-28 13:00N 27°51' W 097°14'0 0.0
2018-Jan-28 12:29N 27°51' W 097°14'0 0.0
2018-Jan-28 11:58N 27°51' W 097°14'0 0.0
2018-Jan-28 11:29N 27°51' W 097°14'0 0.0
2018-Jan-28 11:00N 27°51' W 097°14'0 0.0
2018-Jan-28 10:29N 27°51' W 097°14'0 0.0
2018-Jan-28 10:00N 27°51' W 097°14'0 0.0
2018-Jan-28 09:30N 27°51' W 097°14'0 0.0
2018-Jan-28 09:00N 27°51' W 097°14'0 0.0
2018-Jan-28 08:29N 27°51' W 097°14'0 0.0
2018-Jan-28 08:00N 27°51' W 097°14'0 0.0
2018-Jan-28 07:29N 27°51' W 097°14'0 0.0
2018-Jan-28 07:00N 27°51' W 097°14'0 0.0
2018-Jan-28 06:12N 27°51' W 097°14'0 0.0
2018-Jan-28 05:56N 27°51' W 097°14'0 0.0
2018-Jan-28 04:53N 27°51' W 097°14'0 0.0
2018-Jan-28 04:23N 27°51' W 097°14'0 0.0
2018-Jan-28 03:54N 27°51' W 097°14'0 0.0
2018-Jan-28 03:29N 27°51' W 097°14'0 0.0
2018-Jan-28 02:57N 27°51' W 097°14'0 0.0
2018-Jan-28 02:14N 27°51' W 097°14'0 0.0
2018-Jan-28 01:45N 27°51' W 097°14'0 0.0
2018-Jan-28 01:29N 27°51' W 097°14'0 0.0
2018-Jan-28 00:58N 27°51' W 097°14'0 0.0
2018-Jan-28 00:30N 27°51' W 097°14'0 0.0
2018-Jan-28 00:00N 27°51' W 097°14'0 0.0
2018-Jan-27 23:24N 27°51' W 097°14'0 0.0
2018-Jan-27 22:32N 27°51' W 097°14'0 0.0
2018-Jan-27 20:07N 27°51' W 097°14'0 0.0
2018-Jan-27 19:50N 27°51' W 097°14'0 0.0
2018-Jan-27 19:19N 27°51' W 097°14'0 0.0
2018-Jan-27 18:53N 27°51' W 097°14'0 0.0
2018-Jan-27 15:53N 27°51' W 097°14'0 0.0
2018-Jan-27 15:28N 27°51' W 097°14'0 0.0
2018-Jan-27 14:59N 27°51' W 097°14'0 0.0
2018-Jan-27 14:27N 27°51' W 097°14'0 0.0
2018-Jan-27 14:00N 27°51' W 097°14'0 0.0
2018-Jan-27 13:29N 27°51' W 097°14'0 0.0
2018-Jan-27 12:59N 27°51' W 097°14'0 0.0
2018-Jan-27 12:29N 27°51' W 097°14'0 0.0
2018-Jan-27 11:59N 27°51' W 097°14'0 0.0
2018-Jan-27 11:30N 27°51' W 097°14'0 0.0
2018-Jan-27 10:59N 27°51' W 097°14'0 0.0
2018-Jan-27 10:28N 27°51' W 097°14'0 0.0
2018-Jan-27 09:59N 27°51' W 097°14'0 0.0
2018-Jan-26 05:00N 27°51' W 097°14'0 0.0
2018-Jan-26 03:20N 27°51' W 097°14'0 0.0
2018-Jan-26 02:57N 27°51' W 097°14'0 0.0
2018-Jan-26 02:30N 27°51' W 097°14'0 0.0
2018-Jan-26 01:59N 27°51' W 097°14'0 0.0
2018-Jan-26 01:30N 27°51' W 097°14'0 0.0
2018-Jan-26 00:52N 27°51' W 097°14'0 0.0
2018-Jan-26 00:27N 27°51' W 097°14'0 0.0
2018-Jan-26 00:00N 27°51' W 097°14'0 0.0
2018-Jan-25 23:29N 27°51' W 097°14'0 0.0
2018-Jan-25 23:00N 27°51' W 097°14'0 0.0
2018-Jan-25 22:29N 27°51' W 097°14'0 0.0
2018-Jan-25 21:59N 27°51' W 097°14'0 0.0
2018-Jan-25 21:30N 27°51' W 097°14'0 0.0
2018-Jan-25 20:59N 27°51' W 097°14'0 0.0
2018-Jan-25 20:29N 27°51' W 097°14'0 0.0
2018-Jan-25 19:59N 27°51' W 097°14'0 0.0
2018-Jan-25 19:30N 27°51' W 097°14'0 0.0
2018-Jan-25 18:59N 27°51' W 097°14'0 0.0
2018-Jan-25 18:29N 27°51' W 097°14'0 0.0
2018-Jan-25 18:00N 27°51' W 097°14'0 0.0
2018-Jan-25 17:28N 27°51' W 097°14'0 0.0
2018-Jan-25 17:00N 27°51' W 097°14'0 0.0
2018-Jan-25 16:29N 27°51' W 097°14'0 0.0
2018-Jan-25 15:54N 27°51' W 097°14'0 0.0
2018-Jan-25 15:30N 27°51' W 097°14'0 0.0
2018-Jan-25 14:59N 27°51' W 097°14'0 0.0
2018-Jan-25 14:30N 27°51' W 097°14'0 0.0
2018-Jan-25 13:59N 27°51' W 097°14'0 0.0
2018-Jan-25 13:30N 27°51' W 097°14'0 0.0
2018-Jan-25 13:00N 27°51' W 097°14'0 0.0
2018-Jan-25 12:29N 27°51' W 097°14'0 0.0
2018-Jan-25 12:00N 27°51' W 097°14'0 0.0
2018-Jan-25 11:29N 27°51' W 097°14'0 0.0
2018-Jan-25 10:58N 27°51' W 097°14'0 0.0
2018-Jan-25 10:29N 27°51' W 097°14'0 0.0
2018-Jan-25 10:00N 27°51' W 097°14'0 0.0
2018-Jan-25 09:29N 27°51' W 097°14'0 0.0
2018-Jan-25 09:01N 27°51' W 097°14'0 0.0
2018-Jan-25 08:30N 27°51' W 097°14'0 0.0
2018-Jan-25 07:59N 27°51' W 097°14'0 0.0
2018-Jan-25 07:29N 27°51' W 097°14'0 0.0
2018-Jan-25 07:00N 27°51' W 097°14'0 0.0
2018-Jan-25 06:29N 27°51' W 097°14'0 0.0
2018-Jan-25 06:00N 27°51' W 097°14'0 0.0
2018-Jan-25 05:30N 27°51' W 097°14'0 0.0
2018-Jan-25 04:59N 27°51' W 097°14'0 0.0
2018-Jan-25 04:29N 27°51' W 097°14'0 0.0
2018-Jan-25 03:58N 27°51' W 097°14'0 0.0
2018-Jan-25 03:31N 27°51' W 097°14'0 0.0
2018-Jan-25 03:00N 27°51' W 097°14'0 0.0
2018-Jan-25 02:30N 27°51' W 097°14'0 0.0
2018-Jan-25 01:59N 27°51' W 097°14'0 0.0
2018-Jan-25 01:30N 27°51' W 097°14'0 0.0
2018-Jan-25 00:59N 27°51' W 097°14'0 0.0
2018-Jan-25 00:30N 27°51' W 097°14'0 0.0
2018-Jan-24 23:59N 27°51' W 097°14'0 0.0
2018-Jan-24 23:27N 27°51' W 097°14'0 0.0
2018-Jan-24 22:57N 27°51' W 097°14'0 0.0
2018-Jan-24 22:30N 27°51' W 097°14'0 0.0
2018-Jan-24 22:00N 27°51' W 097°14'0 0.0
2018-Jan-24 21:29N 27°51' W 097°14'0 0.0
2018-Jan-24 21:00N 27°51' W 097°14'0 0.0
2018-Jan-24 20:28N 27°51' W 097°14'0 0.0
2018-Jan-24 19:59N 27°51' W 097°14'0 0.0
2018-Jan-24 19:00N 27°51' W 097°14'0 0.0
2018-Jan-24 18:28N 27°51' W 097°14'0 0.0
2018-Jan-24 17:59N 27°51' W 097°14'0 0.0
2018-Jan-24 17:30N 27°51' W 097°14'0 0.0
2018-Jan-24 16:16N 27°51' W 097°14'0 0.0
2018-Jan-24 15:58N 27°51' W 097°14'0 0.0
2018-Jan-24 15:23N 27°51' W 097°14'0 0.0
2018-Jan-24 15:00N 27°51' W 097°14'0 0.0
2018-Jan-24 14:29N 27°51' W 097°14'0 0.0
2018-Jan-24 13:39N 27°51' W 097°14'0 0.0
2018-Jan-24 13:30N 27°51' W 097°14'0 0.0
2018-Jan-24 12:59N 27°51' W 097°14'0 0.0
2018-Jan-24 12:30N 27°51' W 097°14'0 0.0
2018-Jan-24 11:59N 27°51' W 097°14'0 0.0
2018-Jan-24 11:27N 27°51' W 097°14'0 0.0
2018-Jan-24 11:00N 27°51' W 097°14'0 0.0
2018-Jan-24 10:29N 27°51' W 097°14'0 0.0
2018-Jan-24 10:00N 27°51' W 097°14'0 0.0
2018-Jan-24 09:29N 27°51' W 097°14'0 0.0
2018-Jan-24 09:01N 27°51' W 097°14'0 0.0
2018-Jan-24 08:29N 27°51' W 097°14'0 0.0
2018-Jan-24 07:59N 27°51' W 097°14'0 0.0
2018-Jan-24 07:29N 27°51' W 097°14'0 0.0
2018-Jan-24 06:58N 27°51' W 097°14'0 0.0
2018-Jan-24 06:29N 27°51' W 097°14'0 0.0
2018-Jan-24 05:59N 27°51' W 097°14'0 0.0
2018-Jan-24 05:31N 27°51' W 097°14'0 0.0
2018-Jan-24 05:01N 27°51' W 097°14'0 0.0
2018-Jan-24 04:29N 27°51' W 097°14'0 0.0
2018-Jan-24 04:01N 27°51' W 097°14'0 0.0
2018-Jan-24 03:30N 27°51' W 097°14'0 0.0
2018-Jan-24 02:59N 27°51' W 097°14'0 0.0
2018-Jan-24 02:29N 27°51' W 097°14'0 0.0
2018-Jan-24 02:00N 27°51' W 097°14'0 0.0
2018-Jan-24 01:27N 27°51' W 097°14'0 0.0
2018-Jan-24 00:58N 27°51' W 097°14'0 0.0
2018-Jan-24 00:30N 27°51' W 097°14'0 0.0
2018-Jan-24 00:00N 27°51' W 097°14'0 0.0
2018-Jan-23 23:29N 27°51' W 097°14'0 0.0
2018-Jan-23 22:59N 27°51' W 097°14'0 0.0
2018-Jan-23 22:28N 27°51' W 097°14'0 0.0
2018-Jan-23 21:59N 27°51' W 097°14'0 0.0
2018-Jan-23 21:28N 27°51' W 097°14'0 0.0
2018-Jan-23 21:00N 27°51' W 097°14'0 0.0
2018-Jan-23 20:29N 27°51' W 097°14'0 0.0
2018-Jan-23 20:00N 27°51' W 097°14'0 0.0
2018-Jan-23 19:30N 27°51' W 097°14'0 0.0
2018-Jan-23 18:59N 27°51' W 097°14'0 0.0
2018-Jan-23 18:30N 27°51' W 097°14'0 0.0
2018-Jan-23 18:00N 27°51' W 097°14'0 0.0
2018-Jan-23 17:28N 27°51' W 097°14'0 0.0
2018-Jan-23 16:59N 27°51' W 097°14'0 0.0
2018-Jan-23 16:30N 27°51' W 097°14'0 0.0
2018-Jan-23 16:00N 27°51' W 097°14'0 0.0
2018-Jan-23 15:29N 27°51' W 097°14'0 0.0
2018-Jan-23 14:59N 27°51' W 097°14'0 0.0
2018-Jan-23 14:30N 27°51' W 097°14'0 0.0
2018-Jan-23 14:00N 27°51' W 097°14'0 0.0
2018-Jan-23 13:27N 27°51' W 097°14'0 0.0
2018-Jan-23 12:59N 27°51' W 097°14'0 0.0
2018-Jan-23 12:30N 27°51' W 097°14'0 0.0
2018-Jan-23 12:00N 27°51' W 097°14'0 0.0
2018-Jan-23 11:29N 27°51' W 097°14'0 0.0
2018-Jan-23 11:00N 27°51' W 097°14'0 0.0
2018-Jan-23 10:29N 27°51' W 097°14'0 0.0
2018-Jan-23 09:59N 27°51' W 097°14'0 0.0
2018-Jan-23 09:30N 27°51' W 097°14'0 0.0
2018-Jan-23 09:00N 27°51' W 097°14'0 0.0
2018-Jan-23 08:30N 27°51' W 097°14'0 0.0
2018-Jan-23 07:57N 27°51' W 097°14'0 0.0
2018-Jan-23 07:30N 27°51' W 097°14'0 0.0
2018-Jan-23 06:59N 27°51' W 097°14'0 0.0
2018-Jan-23 06:29N 27°51' W 097°14'0 0.0
2018-Jan-23 06:00N 27°51' W 097°14'0 0.0
2018-Jan-23 05:30N 27°51' W 097°14'0 0.0
2018-Jan-23 05:00N 27°51' W 097°14'0 0.0
2018-Jan-23 04:30N 27°51' W 097°14'0 0.0
2018-Jan-23 04:00N 27°51' W 097°14'0 0.0
2018-Jan-23 03:30N 27°51' W 097°14'0 0.0
2018-Jan-23 02:59N 27°51' W 097°14'0 0.0
2018-Jan-23 02:30N 27°51' W 097°14'0 0.0
2018-Jan-23 01:59N 27°51' W 097°14'0 0.0
2018-Jan-23 01:29N 27°51' W 097°14'0 0.0
2018-Jan-23 00:59N 27°51' W 097°14'0 0.0
2018-Jan-23 00:26N 27°51' W 097°14'0 0.0
2018-Jan-22 23:58N 27°51' W 097°14'0 0.0
2018-Jan-22 23:24N 27°51' W 097°14'0 0.0
2018-Jan-22 22:57N 27°51' W 097°14'0 0.0
2018-Jan-22 22:22N 27°51' W 097°14'0 0.0
2018-Jan-22 22:00N 27°51' W 097°14'0 0.0
2018-Jan-22 21:30N 27°51' W 097°14'0 0.0
2018-Jan-22 20:15N 27°51' W 097°14'0 0.0
2018-Jan-22 19:59N 27°51' W 097°14'0 0.0
2018-Jan-22 19:29N 27°51' W 097°14'0 0.0
2018-Jan-22 19:00N 27°51' W 097°14'0 0.0
2018-Jan-22 18:30N 27°51' W 097°14'0 0.0
2018-Jan-22 17:59N 27°51' W 097°14'0 0.0
2018-Jan-22 17:29N 27°51' W 097°14'0 0.0
2018-Jan-22 16:59N 27°51' W 097°14'0 0.0
2018-Jan-22 16:30N 27°51' W 097°14'1 1.0
2018-Jan-22 15:59N 27°51' W 097°14'1 1.0
2018-Jan-22 15:29N 27°51' W 097°14'0 0.0
2018-Jan-22 15:00N 27°51' W 097°14'0 0.0
2018-Jan-22 14:30N 27°51' W 097°14'0 0.0
2018-Jan-22 14:00N 27°51' W 097°14'0 0.0
2018-Jan-22 13:29N 27°51' W 097°14'0 0.0
2018-Jan-22 12:59N 27°51' W 097°14'0 0.0
2018-Jan-22 12:29N 27°51' W 097°14'0 0.0
2018-Jan-22 12:00N 27°51' W 097°14'0 0.0
2018-Jan-22 11:30N 27°51' W 097°14'0 0.0
2018-Jan-22 11:00N 27°51' W 097°14'0 0.0
2018-Jan-22 10:17N 27°51' W 097°14'0 0.0
2018-Jan-22 08:12N 27°51' W 097°14'0 0.0
2018-Jan-22 08:00N 27°51' W 097°14'0 0.0
2018-Jan-22 07:16N 27°51' W 097°14'0 0.0
2018-Jan-22 06:43N 27°51' W 097°14'0 0.0
2018-Jan-22 05:24N 27°51' W 097°14'0 0.0
2018-Jan-22 04:12N 27°51' W 097°14'0 0.0
2018-Jan-22 03:59N 27°51' W 097°14'0 0.0
2018-Jan-22 03:25N 27°51' W 097°14'0 0.0
2018-Jan-22 01:26N 27°51' W 097°14'0 0.0
2018-Jan-22 00:14N 27°51' W 097°14'  
Track history (hours):
 
Tides and Currents Weather Stations Pressure Air Temp Water Temp Dewpoint Dewpoint Depression Visibility Wind Speed Wind Dir Waves Ship Positions

Signet Reliance

Owner: Signet Maritime Corporation, Pascagoula, MS. More information available from US FCC via Universal Licensing System and Coast Guard Vessel Documentation Center.

Last reported at 2018-Jan-31 09:02 UTC. Time now 2018-May-24 08:13 UTC.
Position N 27°11' W 096°56'.
Warning: this ship's position is months out of date.

Length 30 m; draft 5.5 m.

Type: . MMSI: 367491660.

Date/timePositionNaut miles runAvg speedWind from/ knotsBaromVisibWave heightAir tempDewpointWater temp
2018-Jan-31 09:02N 27°11' W 096°56'010.6
2018-Jan-31 08:59N 27°12' W 096°56'510.6
2018-Jan-31 08:28N 27°17' W 096°56'510.5
2018-Jan-31 07:58N 27°22' W 096°55'510.5
2018-Jan-31 07:29N 27°27' W 096°54'510.5
2018-Jan-31 06:59N 27°33' W 096°53'510.6
2018-Jan-31 06:30N 27°38' W 096°53'5 9.7
2018-Jan-31 06:00N 27°43' W 096°52'0 0.8
2018-Jan-31 05:27N 27°43' W 096°53'1 1.4
2018-Jan-31 05:00N 27°43' W 096°53'1 1.3
2018-Jan-31 04:29N 27°43' W 096°54'0 0.7
2018-Jan-31 04:00N 27°43' W 096°54'0 0.6
2018-Jan-31 03:29N 27°43' W 096°55'0 1.0
2018-Jan-31 03:00N 27°44' W 096°55'0 0.3
2018-Jan-31 02:29N 27°44' W 096°55'1 1.7
2018-Jan-31 02:00N 27°44' W 096°56'1 1.3
2018-Jan-31 01:30N 27°44' W 096°57'1 1.8
2018-Jan-31 00:58N 27°44' W 096°58'2 1.7
2018-Jan-30 23:58N 27°46' W 096°58'1 1.3
2018-Jan-30 23:29N 27°46' W 096°59'1 1.5
2018-Jan-30 23:00N 27°46' W 096°60'1 1.2
2018-Jan-30 22:29N 27°47' W 097°00'1 0.9
2018-Jan-30 21:30N 27°48' W 096°60'0 0.5
2018-Jan-30 21:00N 27°48' W 096°60'0 0.6
2018-Jan-30 20:29N 27°48' W 096°59'0 0.4
2018-Jan-30 20:00N 27°48' W 096°59'1 1.4
2018-Jan-30 19:29N 27°49' W 096°60'1 1.7
2018-Jan-30 18:59N 27°49' W 097°01'1 1.8
2018-Jan-30 18:30N 27°49' W 097°01'1 1.8
2018-Jan-30 18:00N 27°50' W 097°02'1 1.1
2018-Jan-30 17:29N 27°50' W 097°03'1 1.4
2018-Jan-30 17:00N 27°51' W 097°04'1 2.1
2018-Jan-30 16:27N 27°50' W 097°05'1 2.5
2018-Jan-30 15:59N 27°50' W 097°06'1 2.4
2018-Jan-30 15:29N 27°50' W 097°07'1 2.6
2018-Jan-30 15:00N 27°50' W 097°09'1 2.2
2018-Jan-30 14:28N 27°49' W 097°10'2 2.1
2018-Jan-30 13:29N 27°49' W 097°12'1 1.8
2018-Jan-30 13:00N 27°49' W 097°13'1 1.1
2018-Jan-30 12:29N 27°50' W 097°14'0 1.0
2018-Jan-30 11:59N 27°50' W 097°14'0 0.9
2018-Jan-30 11:30N 27°50' W 097°14'1 0.9
2018-Jan-30 10:30N 27°51' W 097°14'0 0.1
2018-Jan-30 09:29N 27°51' W 097°14'0 0.0
2018-Jan-30 09:00N 27°51' W 097°14'0 0.1
2018-Jan-30 08:29N 27°51' W 097°14'0 0.1
2018-Jan-30 07:58N 27°51' W 097°14'0 0.0
2018-Jan-30 07:27N 27°51' W 097°14'0 0.0
2018-Jan-30 06:59N 27°51' W 097°14'0 0.1
2018-Jan-30 06:30N 27°51' W 097°14'0 0.0
2018-Jan-30 06:00N 27°51' W 097°14'0 0.1
2018-Jan-30 05:27N 27°51' W 097°14'0 0.1
2018-Jan-30 05:00N 27°51' W 097°14'0 0.1
2018-Jan-30 04:29N 27°51' W 097°14'0 0.0
2018-Jan-30 04:00N 27°51' W 097°14'0 0.0
2018-Jan-30 03:30N 27°51' W 097°14'0 0.0
2018-Jan-30 02:58N 27°51' W 097°14'0 0.0
2018-Jan-30 02:30N 27°51' W 097°14'0 0.1
2018-Jan-30 01:57N 27°51' W 097°14'0 0.1
2018-Jan-30 01:30N 27°51' W 097°14'0 0.0
2018-Jan-30 00:58N 27°51' W 097°14'0 0.2
2018-Jan-30 00:30N 27°51' W 097°14'0 0.1
2018-Jan-29 23:57N 27°51' W 097°14'0 0.0
2018-Jan-29 23:30N 27°51' W 097°14'0 0.0
2018-Jan-29 23:00N 27°51' W 097°14'0 0.0
2018-Jan-29 22:29N 27°51' W 097°14'0 0.1
2018-Jan-29 21:58N 27°51' W 097°14'0 0.0
2018-Jan-29 21:29N 27°51' W 097°14'0 0.1
2018-Jan-29 21:00N 27°51' W 097°14'0 0.0
2018-Jan-29 20:29N 27°51' W 097°14'0 0.0
2018-Jan-29 20:00N 27°51' W 097°14'0 0.1
2018-Jan-29 19:30N 27°51' W 097°14'0 0.0
2018-Jan-29 18:59N 27°51' W 097°14'0 0.0
2018-Jan-29 18:30N 27°51' W 097°14'0 0.1
2018-Jan-29 17:59N 27°51' W 097°14'1 1.8
2018-Jan-29 17:30N 27°51' W 097°14'0 0.0
2018-Jan-29 17:00N 27°51' W 097°14'0 0.0
2018-Jan-29 16:29N 27°51' W 097°14'0 0.0
2018-Jan-29 16:00N 27°51' W 097°14'0 0.0
2018-Jan-29 15:27N 27°51' W 097°14'0 0.0
2018-Jan-29 14:57N 27°51' W 097°14'0 0.0
2018-Jan-29 14:29N 27°51' W 097°14'0 0.0
2018-Jan-29 14:00N 27°51' W 097°14'0 0.0
2018-Jan-29 13:29N 27°51' W 097°14'0 0.0
2018-Jan-29 12:59N 27°51' W 097°14'0 0.0
2018-Jan-29 12:29N 27°51' W 097°14'0 0.0
2018-Jan-29 12:00N 27°51' W 097°14'0 0.0
2018-Jan-29 11:25N 27°51' W 097°14'0 0.0
2018-Jan-29 10:59N 27°51' W 097°14'0 0.0
2018-Jan-29 10:30N 27°51' W 097°14'0 0.0
2018-Jan-29 09:59N 27°51' W 097°14'0 0.0
2018-Jan-29 09:29N 27°51' W 097°14'0 0.0
2018-Jan-29 09:00N 27°51' W 097°14'0 0.0
2018-Jan-29 08:30N 27°51' W 097°14'0 0.0
2018-Jan-29 08:00N 27°51' W 097°14'0 0.0
2018-Jan-29 07:30N 27°51' W 097°14'0 0.0
2018-Jan-29 06:59N 27°51' W 097°14'0 0.0
2018-Jan-29 06:29N 27°51' W 097°14'0 0.0
2018-Jan-29 06:00N 27°51' W 097°14'0 0.0
2018-Jan-29 05:29N 27°51' W 097°14'0 0.0
2018-Jan-29 04:58N 27°51' W 097°14'0 0.0
2018-Jan-29 04:30N 27°51' W 097°14'0 0.0
2018-Jan-29 03:58N 27°51' W 097°14'0 0.0
2018-Jan-29 03:27N 27°51' W 097°14'0 0.0
2018-Jan-29 02:58N 27°51' W 097°14'0 0.0
2018-Jan-29 02:29N 27°51' W 097°14'0 0.0
2018-Jan-29 02:00N 27°51' W 097°14'0 0.0
2018-Jan-29 01:28N 27°51' W 097°14'0 0.0
2018-Jan-29 00:59N 27°51' W 097°14'0 0.0
2018-Jan-29 00:29N 27°51' W 097°14'0 0.0
2018-Jan-28 23:46N 27°51' W 097°14'0 0.0
2018-Jan-28 23:30N 27°51' W 097°14'0 0.0
2018-Jan-28 23:00N 27°51' W 097°14'0 0.0
2018-Jan-28 22:30N 27°51' W 097°14'0 0.0
2018-Jan-28 22:00N 27°51' W 097°14'0 0.0
2018-Jan-28 21:29N 27°51' W 097°14'0 0.0
2018-Jan-28 21:00N 27°51' W 097°14'0 0.0
2018-Jan-28 20:29N 27°51' W 097°14'0 0.0
2018-Jan-28 19:57N 27°51' W 097°14'0 0.0
2018-Jan-28 19:30N 27°51' W 097°14'0 0.0
2018-Jan-28 19:00N 27°51' W 097°14'0 0.0
2018-Jan-28 18:30N 27°51' W 097°14'0 0.0
2018-Jan-28 17:59N 27°51' W 097°14'0 0.0
2018-Jan-28 17:30N 27°51' W 097°14'0 0.0
2018-Jan-28 16:59N 27°51' W 097°14'0 0.0
2018-Jan-28 16:29N 27°51' W 097°14'0 0.0
2018-Jan-28 15:58N 27°51' W 097°14'0 0.0
2018-Jan-28 15:30N 27°51' W 097°14'0 0.0
2018-Jan-28 14:52N 27°51' W 097°14'0 0.0
2018-Jan-28 14:29N 27°51' W 097°14'0 0.0
2018-Jan-28 13:59N 27°51' W 097°14'0 0.0
2018-Jan-28 13:20N 27°51' W 097°14'0 0.0
2018-Jan-28 13:00N 27°51' W 097°14'0 0.0
2018-Jan-28 12:29N 27°51' W 097°14'0 0.0
2018-Jan-28 11:58N 27°51' W 097°14'0 0.0
2018-Jan-28 11:29N 27°51' W 097°14'0 0.0
2018-Jan-28 11:00N 27°51' W 097°14'0 0.0
2018-Jan-28 10:29N 27°51' W 097°14'0 0.0
2018-Jan-28 10:00N 27°51' W 097°14'0 0.0
2018-Jan-28 09:30N 27°51' W 097°14'0 0.0
2018-Jan-28 09:00N 27°51' W 097°14'0 0.0
2018-Jan-28 08:29N 27°51' W 097°14'0 0.0
2018-Jan-28 08:00N 27°51' W 097°14'0 0.0
2018-Jan-28 07:29N 27°51' W 097°14'0 0.0
2018-Jan-28 07:00N 27°51' W 097°14'0 0.0
2018-Jan-28 06:12N 27°51' W 097°14'0 0.0
2018-Jan-28 05:56N 27°51' W 097°14'0 0.0
2018-Jan-28 04:53N 27°51' W 097°14'0 0.0
2018-Jan-28 04:23N 27°51' W 097°14'0 0.0
2018-Jan-28 03:54N 27°51' W 097°14'0 0.0
2018-Jan-28 03:29N 27°51' W 097°14'0 0.0
2018-Jan-28 02:57N 27°51' W 097°14'0 0.0
2018-Jan-28 02:14N 27°51' W 097°14'0 0.0
2018-Jan-28 01:45N 27°51' W 097°14'0 0.0
2018-Jan-28 01:29N 27°51' W 097°14'0 0.0
2018-Jan-28 00:58N 27°51' W 097°14'0 0.0
2018-Jan-28 00:30N 27°51' W 097°14'0 0.0
2018-Jan-28 00:00N 27°51' W 097°14'0 0.0
2018-Jan-27 23:24N 27°51' W 097°14'0 0.0
2018-Jan-27 22:32N 27°51' W 097°14'0 0.0
2018-Jan-27 20:07N 27°51' W 097°14'0 0.0
2018-Jan-27 19:50N 27°51' W 097°14'0 0.0
2018-Jan-27 19:19N 27°51' W 097°14'0 0.0
2018-Jan-27 18:53N 27°51' W 097°14'0 0.0
2018-Jan-27 15:53N 27°51' W 097°14'0 0.0
2018-Jan-27 15:28N 27°51' W 097°14'0 0.0
2018-Jan-27 14:59N 27°51' W 097°14'0 0.0
2018-Jan-27 14:27N 27°51' W 097°14'0 0.0
2018-Jan-27 14:00N 27°51' W 097°14'0 0.0
2018-Jan-27 13:29N 27°51' W 097°14'0 0.0
2018-Jan-27 12:59N 27°51' W 097°14'0 0.0
2018-Jan-27 12:29N 27°51' W 097°14'0 0.0
2018-Jan-27 11:59N 27°51' W 097°14'0 0.0
2018-Jan-27 11:30N 27°51' W 097°14'0 0.0
2018-Jan-27 10:59N 27°51' W 097°14'0 0.0
2018-Jan-27 10:28N 27°51' W 097°14'0 0.0
2018-Jan-27 09:59N 27°51' W 097°14'0 0.0
2018-Jan-26 05:00N 27°51' W 097°14'0 0.0
2018-Jan-26 03:20N 27°51' W 097°14'0 0.0
2018-Jan-26 02:57N 27°51' W 097°14'0 0.0
2018-Jan-26 02:30N 27°51' W 097°14'0 0.0
2018-Jan-26 01:59N 27°51' W 097°14'0 0.0
2018-Jan-26 01:30N 27°51' W 097°14'0 0.0
2018-Jan-26 00:52N 27°51' W 097°14'0 0.0
2018-Jan-26 00:27N 27°51' W 097°14'0 0.0
2018-Jan-26 00:00N 27°51' W 097°14'0 0.0
2018-Jan-25 23:29N 27°51' W 097°14'0 0.0
2018-Jan-25 23:00N 27°51' W 097°14'0 0.0
2018-Jan-25 22:29N 27°51' W 097°14'0 0.0
2018-Jan-25 21:59N 27°51' W 097°14'0 0.0
2018-Jan-25 21:30N 27°51' W 097°14'0 0.0
2018-Jan-25 20:59N 27°51' W 097°14'0 0.0
2018-Jan-25 20:29N 27°51' W 097°14'0 0.0
2018-Jan-25 19:59N 27°51' W 097°14'0 0.0
2018-Jan-25 19:30N 27°51' W 097°14'0 0.0
2018-Jan-25 18:59N 27°51' W 097°14'0 0.0
2018-Jan-25 18:29N 27°51' W 097°14'0 0.0
2018-Jan-25 18:00N 27°51' W 097°14'0 0.0
2018-Jan-25 17:28N 27°51' W 097°14'0 0.0
2018-Jan-25 17:00N 27°51' W 097°14'0 0.0
2018-Jan-25 16:29N 27°51' W 097°14'0 0.0
2018-Jan-25 15:54N 27°51' W 097°14'0 0.0
2018-Jan-25 15:30N 27°51' W 097°14'0 0.0
2018-Jan-25 14:59N 27°51' W 097°14'0 0.0
2018-Jan-25 14:30N 27°51' W 097°14'0 0.0
2018-Jan-25 13:59N 27°51' W 097°14'0 0.0
2018-Jan-25 13:30N 27°51' W 097°14'0 0.0
2018-Jan-25 13:00N 27°51' W 097°14'0 0.0
2018-Jan-25 12:29N 27°51' W 097°14'0 0.0
2018-Jan-25 12:00N 27°51' W 097°14'0 0.0
2018-Jan-25 11:29N 27°51' W 097°14'0 0.0
2018-Jan-25 10:58N 27°51' W 097°14'0 0.0
2018-Jan-25 10:29N 27°51' W 097°14'0 0.0
2018-Jan-25 10:00N 27°51' W 097°14'0 0.0
2018-Jan-25 09:29N 27°51' W 097°14'0 0.0
2018-Jan-25 09:01N 27°51' W 097°14'0 0.0
2018-Jan-25 08:30N 27°51' W 097°14'0 0.0
2018-Jan-25 07:59N 27°51' W 097°14'0 0.0
2018-Jan-25 07:29N 27°51' W 097°14'0 0.0
2018-Jan-25 07:00N 27°51' W 097°14'0 0.0
2018-Jan-25 06:29N 27°51' W 097°14'0 0.0
2018-Jan-25 06:00N 27°51' W 097°14'0 0.0
2018-Jan-25 05:30N 27°51' W 097°14'0 0.0
2018-Jan-25 04:59N 27°51' W 097°14'0 0.0
2018-Jan-25 04:29N 27°51' W 097°14'0 0.0
2018-Jan-25 03:58N 27°51' W 097°14'0 0.0
2018-Jan-25 03:31N 27°51' W 097°14'0 0.0
2018-Jan-25 03:00N 27°51' W 097°14'0 0.0
2018-Jan-25 02:30N 27°51' W 097°14'0 0.0
2018-Jan-25 01:59N 27°51' W 097°14'0 0.0
2018-Jan-25 01:30N 27°51' W 097°14'0 0.0
2018-Jan-25 00:59N 27°51' W 097°14'0 0.0
2018-Jan-25 00:30N 27°51' W 097°14'0 0.0
2018-Jan-24 23:59N 27°51' W 097°14'0 0.0
2018-Jan-24 23:27N 27°51' W 097°14'0 0.0
2018-Jan-24 22:57N 27°51' W 097°14'0 0.0
2018-Jan-24 22:30N 27°51' W 097°14'0 0.0
2018-Jan-24 22:00N 27°51' W 097°14'0 0.0
2018-Jan-24 21:29N 27°51' W 097°14'0 0.0
2018-Jan-24 21:00N 27°51' W 097°14'0 0.0
2018-Jan-24 20:28N 27°51' W 097°14'0 0.0
2018-Jan-24 19:59N 27°51' W 097°14'0 0.0
2018-Jan-24 19:00N 27°51' W 097°14'0 0.0
2018-Jan-24 18:28N 27°51' W 097°14'0 0.0
2018-Jan-24 17:59N 27°51' W 097°14'0 0.0
2018-Jan-24 17:30N 27°51' W 097°14'0 0.0
2018-Jan-24 16:16N 27°51' W 097°14'0 0.0
2018-Jan-24 15:58N 27°51' W 097°14'0 0.0
2018-Jan-24 15:23N 27°51' W 097°14'0 0.0
2018-Jan-24 15:00N 27°51' W 097°14'0 0.0
2018-Jan-24 14:29N 27°51' W 097°14'0 0.0
2018-Jan-24 13:39N 27°51' W 097°14'0 0.0
2018-Jan-24 13:30N 27°51' W 097°14'0 0.0
2018-Jan-24 12:59N 27°51' W 097°14'0 0.0
2018-Jan-24 12:30N 27°51' W 097°14'0 0.0
2018-Jan-24 11:59N 27°51' W 097°14'0 0.0
2018-Jan-24 11:27N 27°51' W 097°14'0 0.0
2018-Jan-24 11:00N 27°51' W 097°14'0 0.0
2018-Jan-24 10:29N 27°51' W 097°14'0 0.0
2018-Jan-24 10:00N 27°51' W 097°14'0 0.0
2018-Jan-24 09:29N 27°51' W 097°14'0 0.0
2018-Jan-24 09:01N 27°51' W 097°14'0 0.0
2018-Jan-24 08:29N 27°51' W 097°14'0 0.0
2018-Jan-24 07:59N 27°51' W 097°14'0 0.0
2018-Jan-24 07:29N 27°51' W 097°14'0 0.0
2018-Jan-24 06:58N 27°51' W 097°14'0 0.0
2018-Jan-24 06:29N 27°51' W 097°14'0 0.0
2018-Jan-24 05:59N 27°51' W 097°14'0 0.0
2018-Jan-24 05:31N 27°51' W 097°14'0 0.0
2018-Jan-24 05:01N 27°51' W 097°14'0 0.0
2018-Jan-24 04:29N 27°51' W 097°14'0 0.0
2018-Jan-24 04:01N 27°51' W 097°14'0 0.0
2018-Jan-24 03:30N 27°51' W 097°14'0 0.0
2018-Jan-24 02:59N 27°51' W 097°14'0 0.0
2018-Jan-24 02:29N 27°51' W 097°14'0 0.0
2018-Jan-24 02:00N 27°51' W 097°14'0 0.0
2018-Jan-24 01:27N 27°51' W 097°14'0 0.0
2018-Jan-24 00:58N 27°51' W 097°14'0 0.0
2018-Jan-24 00:30N 27°51' W 097°14'0 0.0
2018-Jan-24 00:00N 27°51' W 097°14'0 0.0
2018-Jan-23 23:29N 27°51' W 097°14'0 0.0
2018-Jan-23 22:59N 27°51' W 097°14'0 0.0
2018-Jan-23 22:28N 27°51' W 097°14'0 0.0
2018-Jan-23 21:59N 27°51' W 097°14'0 0.0
2018-Jan-23 21:28N 27°51' W 097°14'0 0.0
2018-Jan-23 21:00N 27°51' W 097°14'0 0.0
2018-Jan-23 20:29N 27°51' W 097°14'0 0.0
2018-Jan-23 20:00N 27°51' W 097°14'0 0.0
2018-Jan-23 19:30N 27°51' W 097°14'0 0.0
2018-Jan-23 18:59N 27°51' W 097°14'0 0.0
2018-Jan-23 18:30N 27°51' W 097°14'0 0.0
2018-Jan-23 18:00N 27°51' W 097°14'0 0.0
2018-Jan-23 17:28N 27°51' W 097°14'0 0.0
2018-Jan-23 16:59N 27°51' W 097°14'0 0.0
2018-Jan-23 16:30N 27°51' W 097°14'0 0.0
2018-Jan-23 16:00N 27°51' W 097°14'0 0.0
2018-Jan-23 15:29N 27°51' W 097°14'0 0.0
2018-Jan-23 14:59N 27°51' W 097°14'0 0.0
2018-Jan-23 14:30N 27°51' W 097°14'0 0.0
2018-Jan-23 14:00N 27°51' W 097°14'0 0.0
2018-Jan-23 13:27N 27°51' W 097°14'0 0.0
2018-Jan-23 12:59N 27°51' W 097°14'0 0.0
2018-Jan-23 12:30N 27°51' W 097°14'0 0.0
2018-Jan-23 12:00N 27°51' W 097°14'0 0.0
2018-Jan-23 11:29N 27°51' W 097°14'0 0.0
2018-Jan-23 11:00N 27°51' W 097°14'0 0.0
2018-Jan-23 10:29N 27°51' W 097°14'0 0.0
2018-Jan-23 09:59N 27°51' W 097°14'0 0.0
2018-Jan-23 09:30N 27°51' W 097°14'0 0.0
2018-Jan-23 09:00N 27°51' W 097°14'0 0.0
2018-Jan-23 08:30N 27°51' W 097°14'0 0.0
2018-Jan-23 07:57N 27°51' W 097°14'0 0.0
2018-Jan-23 07:30N 27°51' W 097°14'0 0.0
2018-Jan-23 06:59N 27°51' W 097°14'0 0.0
2018-Jan-23 06:29N 27°51' W 097°14'0 0.0
2018-Jan-23 06:00N 27°51' W 097°14'0 0.0
2018-Jan-23 05:30N 27°51' W 097°14'0 0.0
2018-Jan-23 05:00N 27°51' W 097°14'0 0.0
2018-Jan-23 04:30N 27°51' W 097°14'0 0.0
2018-Jan-23 04:00N 27°51' W 097°14'0 0.0
2018-Jan-23 03:30N 27°51' W 097°14'0 0.0
2018-Jan-23 02:59N 27°51' W 097°14'0 0.0
2018-Jan-23 02:30N 27°51' W 097°14'0 0.0
2018-Jan-23 01:59N 27°51' W 097°14'0 0.0
2018-Jan-23 01:29N 27°51' W 097°14'0 0.0
2018-Jan-23 00:59N 27°51' W 097°14'0 0.0
2018-Jan-23 00:26N 27°51' W 097°14'0 0.0
2018-Jan-22 23:58N 27°51' W 097°14'0 0.0
2018-Jan-22 23:24N 27°51' W 097°14'0 0.0
2018-Jan-22 22:57N 27°51' W 097°14'0 0.0
2018-Jan-22 22:22N 27°51' W 097°14'0 0.0
2018-Jan-22 22:00N 27°51' W 097°14'0 0.0
2018-Jan-22 21:30N 27°51' W 097°14'0 0.0
2018-Jan-22 20:15N 27°51' W 097°14'0 0.0
2018-Jan-22 19:59N 27°51' W 097°14'0 0.0
2018-Jan-22 19:29N 27°51' W 097°14'0 0.0
2018-Jan-22 19:00N 27°51' W 097°14'0 0.0
2018-Jan-22 18:30N 27°51' W 097°14'0 0.0
2018-Jan-22 17:59N 27°51' W 097°14'0 0.0
2018-Jan-22 17:29N 27°51' W 097°14'0 0.0
2018-Jan-22 16:59N 27°51' W 097°14'0 0.0
2018-Jan-22 16:30N 27°51' W 097°14'1 1.0
2018-Jan-22 15:59N 27°51' W 097°14'1 1.0
2018-Jan-22 15:29N 27°51' W 097°14'0 0.0
2018-Jan-22 15:00N 27°51' W 097°14'0 0.0
2018-Jan-22 14:30N 27°51' W 097°14'0 0.0
2018-Jan-22 14:00N 27°51' W 097°14'0 0.0
2018-Jan-22 13:29N 27°51' W 097°14'0 0.0
2018-Jan-22 12:59N 27°51' W 097°14'0 0.0
2018-Jan-22 12:29N 27°51' W 097°14'0 0.0
2018-Jan-22 12:00N 27°51' W 097°14'0 0.0
2018-Jan-22 11:30N 27°51' W 097°14'0 0.0
2018-Jan-22 11:00N 27°51' W 097°14'0 0.0
2018-Jan-22 10:17N 27°51' W 097°14'0 0.0
2018-Jan-22 08:12N 27°51' W 097°14'0 0.0
2018-Jan-22 08:00N 27°51' W 097°14'0 0.0
2018-Jan-22 07:16N 27°51' W 097°14'0 0.0
2018-Jan-22 06:43N 27°51' W 097°14'0 0.0
2018-Jan-22 05:24N 27°51' W 097°14'0 0.0
2018-Jan-22 04:12N 27°51' W 097°14'0 0.0
2018-Jan-22 03:59N 27°51' W 097°14'0 0.0
2018-Jan-22 03:25N 27°51' W 097°14'0 0.0
2018-Jan-22 01:26N 27°51' W 097°14'0 0.0
2018-Jan-22 00:14N 27°51' W 097°14'  

Dump ship's entire track history